Time;durP1;ratioP1;P1;durP2;ratioP2;P2;SDS_P1;SDS_P2;PMS_P1;PMS_P2;Temp;Humidity;BMP_temperature;BMP_pressure;BME280_temperature;BME280_humidity;BME280_pressure;Samples;Min_cycle;Max_cycle;Signal;HPM_P1;HPM_P2
2023/09/15 00:00:54;;;;;;;34.83;33.53;;;22.80;79.10;;;;;;4975161;28;20567;-59
2023/09/15 00:03:21;;;;;;;33.90;32.40;;;22.80;79.20;;;;;;4974810;28;20888;-57
2023/09/15 00:05:48;;;;;;;34.80;33.50;;;22.80;79.40;;;;;;4975021;28;20515;-58
2023/09/15 00:08:15;;;;;;;35.30;33.90;;;22.80;79.30;;;;;;4974994;28;20446;-58
2023/09/15 00:10:44;;;;;;;35.20;33.80;;;22.80;79.50;;;;;;4974888;28;20479;-59
2023/09/15 00:13:12;;;;;;;34.67;33.27;;;22.80;79.70;;;;;;4974358;28;20464;-57
2023/09/15 00:15:40;;;;;;;34.57;32.77;;;22.80;79.70;;;;;;4974745;28;21184;-59
2023/09/15 00:18:07;;;;;;;34.83;33.43;;;22.80;79.50;;;;;;4974151;28;20823;-58
2023/09/15 00:20:34;;;;;;;33.80;32.40;;;22.80;79.40;;;;;;4974583;28;20479;-61
2023/09/15 00:23:02;;;;;;;33.33;32.03;;;22.80;79.50;;;;;;4974262;28;20456;-58
2023/09/15 00:25:30;;;;;;;34.20;32.70;;;22.70;79.60;;;;;;4974241;28;20494;-56
2023/09/15 00:27:59;;;;;;;34.50;33.00;;;22.70;79.40;;;;;;4974476;28;20454;-59
2023/09/15 00:30:28;;;;;;;35.83;34.43;;;22.70;79.30;;;;;;4974363;28;20472;-59
2023/09/15 00:32:56;;;;;;;33.57;32.20;;;22.70;79.30;;;;;;4974408;28;20483;-58
2023/09/15 00:35:27;;;;;;;34.00;32.60;;;22.70;79.30;;;;;;4974464;28;20514;-56
2023/09/15 00:37:55;;;;;;;35.43;33.93;;;22.70;79.50;;;;;;4975077;28;20444;-58
2023/09/15 00:40:22;;;;;;;32.50;31.20;;;22.70;79.50;;;;;;4974773;28;20459;-57
2023/09/15 00:42:51;;;;;;;34.90;33.50;;;22.70;79.60;;;;;;4974004;28;20476;-58
2023/09/15 00:45:19;;;;;;;33.20;31.90;;;22.70;80.30;;;;;;4974197;28;20499;-56
2023/09/15 00:47:50;;;;;;;33.60;32.20;;;22.70;79.70;;;;;;4973619;28;20841;-58
2023/09/15 00:50:21;;;;;;;33.40;32.00;;;22.70;79.70;;;;;;4973555;28;20460;-57
2023/09/15 00:52:52;;;;;;;34.13;32.63;;;22.60;79.50;;;;;;4973659;28;20544;-59
2023/09/15 00:55:21;;;;;;;35.40;33.90;;;22.60;79.60;;;;;;4973903;28;20831;-56
2023/09/15 00:57:51;;;;;;;34.67;33.23;;;22.60;79.50;;;;;;4974038;28;20447;-59
2023/09/15 01:00:19;;;;;;;33.50;32.17;;;22.60;79.40;;;;;;4973986;28;20452;-58
2023/09/15 01:02:49;;;;;;;33.70;32.20;;;22.60;79.40;;;;;;4973799;28;20499;-59
2023/09/15 01:05:22;;;;;;;33.53;32.13;;;22.60;79.60;;;;;;4974003;28;20463;-57
2023/09/15 01:07:50;;;;;;;34.63;33.23;;;22.60;79.60;;;;;;4974159;28;20527;-61
2023/09/15 01:10:18;;;;;;;33.80;32.30;;;22.60;79.30;;;;;;4973616;28;20440;-60
2023/09/15 01:12:47;;;;;;;34.00;32.60;;;22.60;79.20;;;;;;4973383;28;20490;-57
2023/09/15 01:15:14;;;;;;;32.77;31.37;;;22.60;79.10;;;;;;4974152;28;21068;-56
2023/09/15 01:17:47;;;;;;;34.17;32.77;;;22.50;79.00;;;;;;4974172;28;20476;-57
2023/09/15 01:20:23;;;;;;;29.77;28.47;;;22.50;79.00;;;;;;4973740;28;20471;-55
2023/09/15 01:23:30;;;;;;;30.03;28.73;;;22.50;78.90;;;;;;4974211;28;20472;-57
2023/09/15 01:26:23;;;;;;;32.53;31.23;;;22.50;78.90;;;;;;4970099;28;20859;-58
2023/09/15 01:29:21;;;;;;;35.03;33.63;;;22.50;78.90;;;;;;4974619;28;20498;-56
2023/09/15 01:31:50;;;;;;;34.00;32.63;;;22.50;79.00;;;;;;4970217;28;20903;-55
2023/09/15 01:34:18;;;;;;;33.70;32.30;;;22.50;79.20;;;;;;4973862;28;20982;-57
2023/09/15 01:36:45;;;;;;;31.70;30.40;;;22.40;79.10;;;;;;4976963;28;20487;-55
2023/09/15 01:39:12;;;;;;;34.70;33.30;;;22.40;79.10;;;;;;4978538;28;20479;-55
2023/09/15 01:41:39;;;;;;;33.00;31.60;;;22.40;79.70;;;;;;4978446;28;20513;-56
2023/09/15 01:44:06;;;;;;;31.53;30.33;;;22.40;79.60;;;;;;4978043;28;20483;-58
2023/09/15 01:46:33;;;;;;;32.87;31.50;;;22.40;78.80;;;;;;4978176;28;20958;-58
2023/09/15 01:49:02;;;;;;;35.30;33.90;;;22.40;78.60;;;;;;4977470;28;20487;-58
2023/09/15 01:51:30;;;;;;;34.07;32.30;;;22.40;78.90;;;;;;4971110;28;20475;-57
2023/09/15 01:53:57;;;;;;;32.70;31.33;;;22.40;79.00;;;;;;4977827;28;20462;-57
2023/09/15 01:56:28;;;;;;;33.13;31.67;;;22.40;79.00;;;;;;4978171;28;20471;-59
2023/09/15 01:58:55;;;;;;;34.13;32.33;;;22.40;79.00;;;;;;4978085;28;20447;-56
2023/09/15 02:01:22;;;;;;;34.27;32.87;;;22.30;78.90;;;;;;4977929;28;20479;-56
2023/09/15 02:03:49;;;;;;;32.60;31.30;;;22.30;78.90;;;;;;4978320;28;20906;-55
2023/09/15 02:06:17;;;;;;;33.60;32.30;;;22.30;78.80;;;;;;4978633;28;20516;-56
2023/09/15 02:08:44;;;;;;;33.93;32.53;;;22.30;78.70;;;;;;4978697;28;20840;-55
2023/09/15 02:11:11;;;;;;;34.87;33.47;;;22.30;78.60;;;;;;4977863;28;20439;-57
2023/09/15 02:13:40;;;;;;;33.50;32.13;;;22.30;78.60;;;;;;4977599;28;20455;-57
2023/09/15 02:16:07;;;;;;;34.53;32.60;;;22.30;78.70;;;;;;4977850;28;20492;-54
2023/09/15 02:18:34;;;;;;;35.00;33.40;;;22.30;78.60;;;;;;4978395;28;20486;-56
2023/09/15 02:21:01;;;;;;;36.30;34.90;;;22.30;78.40;;;;;;4977924;28;20444;-55
2023/09/15 02:23:29;;;;;;;33.80;32.50;;;22.30;78.50;;;;;;4977806;28;20444;-60
2023/09/15 02:25:57;;;;;;;32.87;31.57;;;22.20;78.30;;;;;;5068468;22;20578;-56
2023/09/15 02:28:24;;;;;;;32.80;31.50;;;22.20;78.20;;;;;;5073755;28;20471;-58
2023/09/15 02:30:52;;;;;;;34.53;33.13;;;22.20;78.20;;;;;;5073776;28;20856;-56
2023/09/15 02:33:19;;;;;;;34.53;33.13;;;22.20;78.10;;;;;;5073451;28;20475;-57
2023/09/15 02:35:47;;;;;;;35.07;33.67;;;22.20;78.10;;;;;;5060830;28;20550;-57
2023/09/15 02:38:14;;;;;;;34.13;32.67;;;22.20;78.10;;;;;;5052144;28;20472;-56
2023/09/15 02:40:42;;;;;;;34.00;32.70;;;22.20;78.60;;;;;;5053379;28;20473;-57
2023/09/15 02:43:09;;;;;;;35.90;34.40;;;22.20;78.20;;;;;;5053308;28;20440;-59
2023/09/15 02:45:36;;;;;;;34.63;33.13;;;22.20;78.00;;;;;;5053351;28;20475;-55
2023/09/15 02:48:04;;;;;;;34.33;32.93;;;22.20;77.90;;;;;;5051437;28;20512;-56
2023/09/15 02:50:31;;;;;;;34.97;33.37;;;22.20;77.70;;;;;;5053014;28;20885;-59
2023/09/15 02:52:58;;;;;;;35.67;34.27;;;22.10;77.50;;;;;;5053294;28;20472;-59
2023/09/15 02:55:25;;;;;;;34.30;32.90;;;22.10;77.50;;;;;;5053092;28;20584;-57
2023/09/15 02:57:54;;;;;;;35.27;33.87;;;22.10;77.50;;;;;;5053117;28;20946;-56
2023/09/15 03:00:21;;;;;;;34.57;33.27;;;22.10;77.50;;;;;;5052752;28;20475;-59
2023/09/15 03:02:48;;;;;;;36.50;35.07;;;22.10;77.50;;;;;;5052874;28;20475;-59
2023/09/15 03:05:15;;;;;;;37.17;35.60;;;22.10;77.50;;;;;;5052731;28;20875;-58
2023/09/15 03:07:42;;;;;;;37.00;35.27;;;22.10;77.50;;;;;;5052813;28;20510;-58
2023/09/15 03:10:10;;;;;;;35.23;33.83;;;22.10;77.60;;;;;;5053002;28;20448;-58
2023/09/15 03:12:38;;;;;;;36.87;35.47;;;22.10;77.60;;;;;;5052364;28;20487;-57
2023/09/15 03:15:08;;;;;;;36.50;35.10;;;22.10;77.60;;;;;;5052595;28;20488;-56
2023/09/15 03:17:36;;;;;;;35.90;34.30;;;22.10;77.60;;;;;;5052814;28;20472;-58
2023/09/15 03:20:12;;;;;;;36.13;34.73;;;22.00;77.50;;;;;;5052167;28;20456;-57
2023/09/15 03:22:40;;;;;;;35.93;34.50;;;22.00;77.60;;;;;;5046141;28;20440;-58
2023/09/15 03:25:07;;;;;;;36.67;34.97;;;22.00;77.50;;;;;;5052296;28;20968;-55
2023/09/15 03:27:34;;;;;;;36.97;35.03;;;22.00;77.50;;;;;;5052648;28;20486;-59
2023/09/15 03:30:01;;;;;;;36.20;34.80;;;22.00;77.80;;;;;;5052541;28;20475;-56
2023/09/15 03:32:29;;;;;;;36.83;35.33;;;22.00;77.80;;;;;;5044480;28;20465;-59
2023/09/15 03:34:56;;;;;;;36.93;35.33;;;22.00;77.70;;;;;;5052382;28;20884;-57
2023/09/15 03:37:23;;;;;;;35.43;34.03;;;22.00;77.70;;;;;;5052329;28;20502;-57
2023/09/15 03:39:50;;;;;;;38.37;36.67;;;22.00;77.70;;;;;;5052320;28;20480;-59
2023/09/15 03:42:17;;;;;;;37.20;35.70;;;22.00;77.70;;;;;;5051596;28;20472;-57
2023/09/15 03:44:44;;;;;;;35.93;34.43;;;22.00;77.80;;;;;;5052179;28;20522;-57
2023/09/15 03:47:10;;;;;;;35.50;34.10;;;22.00;77.70;;;;;;5052126;28;20511;-59
2023/09/15 03:49:39;;;;;;;37.07;35.57;;;21.90;77.70;;;;;;5052101;28;20971;-58
2023/09/15 03:52:06;;;;;;;37.00;35.57;;;21.90;77.70;;;;;;5051992;28;20478;-58
2023/09/15 03:54:33;;;;;;;38.47;36.87;;;21.90;77.80;;;;;;5051586;28;20476;-57
2023/09/15 03:57:00;;;;;;;34.33;32.77;;;21.90;77.80;;;;;;5052046;28;20486;-58
2023/09/15 03:59:27;;;;;;;37.53;35.30;;;21.90;77.70;;;;;;5043440;28;20464;-59
2023/09/15 04:01:54;;;;;;;40.03;38.53;;;21.90;77.80;;;;;;5051935;28;20444;-58
2023/09/15 04:04:21;;;;;;;41.00;39.30;;;21.90;77.80;;;;;;5051434;28;20449;-59
2023/09/15 04:06:49;;;;;;;40.00;38.27;;;21.90;77.70;;;;;;5051855;28;20573;-56
2023/09/15 04:09:19;;;;;;;39.80;38.20;;;21.90;77.70;;;;;;5051861;28;20951;-58
2023/09/15 04:11:46;;;;;;;41.63;39.93;;;21.90;77.70;;;;;;5051743;28;20448;-56
2023/09/15 04:14:12;;;;;;;42.07;40.37;;;21.90;77.70;;;;;;5051032;28;20978;-57
2023/09/15 04:16:40;;;;;;;45.17;43.47;;;21.80;77.50;;;;;;5050859;28;20518;-58
2023/09/15 04:19:07;;;;;;;51.70;49.80;;;21.90;78.70;;;;;;5051187;28;20267;-54
2023/09/15 04:21:37;;;;;;;52.00;50.07;;;22.00;78.20;;;;;;5051571;28;20476;-55
2023/09/15 04:24:06;;;;;;;51.70;49.80;;;22.00;78.20;;;;;;5051859;28;20436;-56
2023/09/15 04:26:32;;;;;;;52.20;50.40;;;22.10;78.10;;;;;;5051956;28;20496;-53
2023/09/15 04:28:59;;;;;;;52.30;50.27;;;22.20;78.30;;;;;;5050199;28;20472;-55
2023/09/15 04:31:26;;;;;;;44.97;43.17;;;22.30;78.30;;;;;;5045939;28;20471;-57
2023/09/15 04:33:54;;;;;;;47.30;45.57;;;22.40;79.30;;;;;;5050141;28;20251;-58
2023/09/15 04:36:21;;;;;;;46.77;45.07;;;22.60;79.00;;;;;;5050862;28;20466;-56
2023/09/15 04:38:48;;;;;;;49.20;46.93;;;22.70;78.70;;;;;;5051296;28;20467;-58
2023/09/15 04:41:16;;;;;;;46.90;45.20;;;22.80;78.50;;;;;;5050718;28;20480;-58
2023/09/15 04:43:43;;;;;;;50.10;48.20;;;22.90;78.20;;;;;;5051159;28;20479;-55
2023/09/15 04:46:09;;;;;;;49.23;47.33;;;23.10;79.40;;;;;;5051093;28;20491;-57
2023/09/15 04:48:36;;;;;;;49.67;47.53;;;23.10;78.20;;;;;;5046157;28;20508;-62
2023/09/15 04:51:03;;;;;;;49.57;47.10;;;23.20;77.70;;;;;;5049954;28;20490;-56
2023/09/15 04:53:30;;;;;;;43.40;41.60;;;23.30;78.10;;;;;;5049103;28;20499;-54
2023/09/15 04:55:57;;;;;;;51.97;49.43;;;23.40;78.30;;;;;;5050297;28;20480;-61
2023/09/15 04:58:26;;;;;;;50.50;48.10;;;23.50;78.90;;;;;;5049746;28;20502;-61
2023/09/15 05:01:00;;;;;;;47.73;45.73;;;23.50;77.80;;;;;;5051112;28;20466;-60
2023/09/15 05:03:27;;;;;;;48.57;46.47;;;23.50;77.10;;;;;;5051003;28;20448;-58
2023/09/15 05:05:55;;;;;;;45.57;43.67;;;23.50;76.40;;;;;;5051126;28;20907;-61
2023/09/15 05:08:22;;;;;;;55.43;53.23;;;23.50;76.40;;;;;;5050613;28;20998;-60
2023/09/15 05:10:50;;;;;;;45.07;42.97;;;23.40;80.50;;;;;;5052284;28;20554;-52
2023/09/15 05:13:17;;;;;;;42.77;40.83;;;23.40;81.20;;;;;;5054760;28;20537;-59
2023/09/15 05:15:45;;;;;;;44.57;42.87;;;23.40;79.30;;;;;;5055611;28;20496;-57
2023/09/15 05:18:12;;;;;;;45.30;43.50;;;23.30;78.80;;;;;;5055899;28;20788;-52
2023/09/15 05:20:39;;;;;;;43.67;42.10;;;23.20;80.30;;;;;;5054884;28;21001;-51
2023/09/15 05:23:06;;;;;;;46.13;44.23;;;23.20;78.20;;;;;;5054482;28;20472;-51
2023/09/15 05:25:33;;;;;;;41.13;39.43;;;23.10;77.60;;;;;;5054526;28;20503;-52
2023/09/15 05:28:01;;;;;;;46.53;44.83;;;23.10;77.20;;;;;;5054753;28;20479;-51
2023/09/15 05:30:28;;;;;;;42.50;40.80;;;23.00;76.70;;;;;;5054548;28;20452;-52
2023/09/15 05:32:56;;;;;;;44.93;43.23;;;22.90;76.40;;;;;;5054395;28;20479;-55
2023/09/15 05:35:23;;;;;;;44.53;42.43;;;22.90;76.20;;;;;;5054499;28;20495;-54
2023/09/15 05:37:50;;;;;;;41.07;39.40;;;22.90;76.20;;;;;;5054651;28;20479;-52
2023/09/15 05:40:17;;;;;;;44.67;43.07;;;22.80;76.00;;;;;;5054406;28;20877;-53
2023/09/15 05:42:44;;;;;;;42.27;40.50;;;22.80;76.00;;;;;;5054245;28;20864;-51
2023/09/15 05:45:12;;;;;;;44.43;42.73;;;22.70;75.90;;;;;;5054246;28;20496;-55
2023/09/15 05:47:38;;;;;;;42.10;40.53;;;22.70;75.90;;;;;;5053740;28;20484;-50
2023/09/15 05:50:08;;;;;;;43.17;41.67;;;22.60;75.80;;;;;;5053944;28;20494;-55
2023/09/15 05:52:35;;;;;;;43.40;41.90;;;22.60;75.90;;;;;;5054214;28;20506;-51
2023/09/15 05:55:04;;;;;;;40.90;39.40;;;22.50;75.80;;;;;;5054292;28;20488;-53
2023/09/15 05:57:31;;;;;;;42.23;40.63;;;22.50;75.90;;;;;;5045923;28;20923;-51
2023/09/15 05:59:59;;;;;;;43.23;41.63;;;22.40;75.90;;;;;;5054304;28;20837;-50
2023/09/15 06:02:25;;;;;;;41.10;39.60;;;22.40;76.00;;;;;;5053627;28;20916;-53
2023/09/15 06:04:53;;;;;;;41.43;39.93;;;22.40;76.10;;;;;;5054025;28;20491;-51
2023/09/15 06:07:21;;;;;;;45.80;44.00;;;22.30;76.10;;;;;;5053927;28;20479;-50
2023/09/15 06:09:48;;;;;;;42.93;41.17;;;22.30;76.10;;;;;;5054039;28;20475;-52
2023/09/15 06:12:15;;;;;;;42.47;40.87;;;22.30;76.30;;;;;;5053735;28;20480;-54
2023/09/15 06:14:42;;;;;;;44.10;42.30;;;22.20;76.30;;;;;;5053904;28;20903;-56
2023/09/15 06:17:09;;;;;;;44.17;42.57;;;22.20;76.40;;;;;;5053673;28;20472;-54
2023/09/15 06:19:36;;;;;;;44.20;42.40;;;22.20;76.50;;;;;;5053877;28;20471;-57
2023/09/15 06:22:03;;;;;;;45.60;43.90;;;22.10;76.50;;;;;;5053567;28;20472;-57
2023/09/15 06:24:31;;;;;;;44.53;42.93;;;22.10;76.60;;;;;;5053335;28;21056;-57
2023/09/15 06:26:58;;;;;;;45.73;44.00;;;22.10;76.70;;;;;;5053708;28;20472;-55
2023/09/15 06:29:25;;;;;;;44.53;42.87;;;22.10;76.70;;;;;;5053456;28;20512;-54
2023/09/15 06:31:52;;;;;;;45.30;43.70;;;22.10;76.80;;;;;;5053488;28;20471;-57
2023/09/15 06:34:19;;;;;;;47.50;45.70;;;22.10;76.90;;;;;;5053092;28;20818;-56
2023/09/15 06:36:45;;;;;;;45.53;43.73;;;22.00;76.90;;;;;;5053520;28;20444;-57
2023/09/15 06:39:12;;;;;;;43.83;42.13;;;22.00;77.00;;;;;;5053187;28;20475;-55
2023/09/15 06:41:41;;;;;;;45.50;43.60;;;22.00;77.10;;;;;;5053295;28;20479;-54
2023/09/15 06:44:10;;;;;;;47.93;45.97;;;22.00;77.20;;;;;;5053021;28;20970;-54
2023/09/15 06:46:37;;;;;;;45.77;43.87;;;22.00;77.30;;;;;;5053172;28;20503;-58
2023/09/15 06:49:03;;;;;;;43.93;42.33;;;22.00;77.30;;;;;;5053111;28;20503;-57
2023/09/15 06:51:32;;;;;;;43.50;41.90;;;22.00;77.40;;;;;;5053054;28;20920;-53
2023/09/15 06:53:59;;;;;;;43.80;42.10;;;22.00;77.40;;;;;;5053147;28;20441;-57
2023/09/15 06:56:27;;;;;;;45.87;43.93;;;21.90;77.40;;;;;;5052997;28;20498;-58
2023/09/15 06:58:55;;;;;;;44.60;42.90;;;21.90;77.40;;;;;;5053011;28;20444;-55
2023/09/15 07:01:22;;;;;;;45.60;43.90;;;21.90;77.50;;;;;;5052828;28;20468;-57
2023/09/15 07:03:49;;;;;;;46.20;44.47;;;21.90;77.50;;;;;;5052803;28;20443;-54
2023/09/15 07:06:17;;;;;;;45.40;43.60;;;21.90;77.70;;;;;;5052753;28;20496;-53
2023/09/15 07:08:45;;;;;;;49.07;47.37;;;21.90;77.70;;;;;;5052779;28;20475;-57
2023/09/15 07:11:12;;;;;;;46.20;44.40;;;21.90;77.80;;;;;;5052676;28;20532;-56
2023/09/15 07:13:38;;;;;;;48.80;47.00;;;21.90;77.80;;;;;;5052577;28;20468;-56
2023/09/15 07:16:07;;;;;;;48.77;46.97;;;21.90;78.00;;;;;;5052618;28;20495;-56
2023/09/15 07:18:34;;;;;;;47.10;45.47;;;21.90;78.00;;;;;;5044528;28;20479;-56
2023/09/15 07:21:00;;;;;;;45.23;43.53;;;21.90;78.10;;;;;;5052656;28;20478;-56
2023/09/15 07:23:27;;;;;;;42.77;41.07;;;21.90;78.10;;;;;;5052322;28;20472;-53
2023/09/15 07:25:54;;;;;;;42.40;40.80;;;21.90;78.20;;;;;;5052330;28;20499;-54
2023/09/15 07:28:21;;;;;;;46.53;44.73;;;21.90;78.30;;;;;;5052301;28;20508;-55
2023/09/15 07:30:48;;;;;;;43.13;41.63;;;21.90;78.30;;;;;;5052429;28;20859;-56
2023/09/15 07:33:16;;;;;;;44.13;42.43;;;21.90;78.40;;;;;;5051388;28;20966;-57
2023/09/15 07:35:43;;;;;;;46.40;44.80;;;21.90;78.60;;;;;;5052231;28;20474;-53
2023/09/15 07:38:10;;;;;;;46.33;44.53;;;21.90;78.50;;;;;;5052172;28;20865;-57
2023/09/15 07:40:37;;;;;;;46.70;45.00;;;21.90;78.60;;;;;;5052280;28;20468;-56
2023/09/15 07:43:04;;;;;;;45.93;44.33;;;21.90;78.70;;;;;;5052118;28;20472;-58
2023/09/15 07:45:31;;;;;;;44.53;42.93;;;21.90;78.80;;;;;;5051976;28;20502;-54
2023/09/15 07:47:58;;;;;;;47.63;45.83;;;21.90;78.80;;;;;;5052016;28;20515;-55
2023/09/15 07:50:26;;;;;;;47.67;45.97;;;21.90;78.90;;;;;;5052069;28;20475;-57
2023/09/15 07:52:53;;;;;;;45.23;43.43;;;21.90;78.90;;;;;;5051936;28;20878;-58
2023/09/15 07:55:20;;;;;;;46.80;45.10;;;21.90;79.10;;;;;;5051823;28;20908;-56
2023/09/15 07:57:47;;;;;;;48.43;46.60;;;21.90;79.10;;;;;;5051920;28;20469;-58
2023/09/15 08:00:14;;;;;;;46.73;45.03;;;21.80;79.10;;;;;;5051816;28;20754;-57
2023/09/15 08:02:41;;;;;;;46.23;44.40;;;21.80;79.30;;;;;;5051580;28;20476;-57
2023/09/15 08:05:09;;;;;;;47.10;45.40;;;21.80;79.20;;;;;;5051852;28;20501;-56
2023/09/15 08:07:37;;;;;;;46.30;44.70;;;21.80;79.40;;;;;;5051794;28;20464;-56
2023/09/15 08:10:05;;;;;;;42.93;41.23;;;21.80;79.40;;;;;;5051856;28;20755;-58
2023/09/15 08:12:32;;;;;;;44.83;43.23;;;21.80;79.40;;;;;;5051441;28;20947;-57
2023/09/15 08:14:59;;;;;;;45.17;43.57;;;21.80;79.40;;;;;;5051520;28;20487;-56
2023/09/15 08:17:26;;;;;;;43.43;41.93;;;21.80;79.50;;;;;;5051594;28;20467;-58
2023/09/15 08:19:54;;;;;;;46.70;45.00;;;21.80;79.50;;;;;;5051634;28;20432;-57
2023/09/15 08:22:22;;;;;;;47.20;45.57;;;21.80;79.50;;;;;;5051318;28;20866;-58
2023/09/15 08:24:51;;;;;;;48.40;46.70;;;21.80;79.80;;;;;;5051639;28;20979;-57
2023/09/15 08:27:18;;;;;;;45.57;43.77;;;21.80;79.80;;;;;;5051389;28;20474;-56
2023/09/15 08:29:44;;;;;;;44.80;43.20;;;21.90;79.80;;;;;;5051355;28;20515;-56
2023/09/15 08:32:11;;;;;;;45.63;43.93;;;21.80;80.00;;;;;;5051332;28;20468;-58
2023/09/15 08:34:38;;;;;;;45.57;43.63;;;21.90;79.90;;;;;;5051099;28;20511;-56
2023/09/15 08:37:05;;;;;;;43.23;41.73;;;21.90;80.00;;;;;;5051406;28;20475;-57
2023/09/15 08:39:32;;;;;;;42.30;40.80;;;21.90;80.00;;;;;;5051321;28;20475;-54
2023/09/15 08:42:04;;;;;;;41.67;40.07;;;21.90;80.20;;;;;;5051226;28;20475;-58
2023/09/15 08:44:32;;;;;;;41.10;39.70;;;21.90;80.10;;;;;;5050924;28;20440;-58
2023/09/15 08:47:01;;;;;;;44.20;42.60;;;21.90;80.20;;;;;;5051216;28;20472;-57
2023/09/15 08:49:29;;;;;;;44.40;42.80;;;21.90;80.20;;;;;;5050931;28;20476;-57
2023/09/15 08:51:57;;;;;;;49.20;46.70;;;21.90;80.30;;;;;;5051213;28;20464;-57
2023/09/15 08:54:24;;;;;;;49.87;47.23;;;21.90;80.30;;;;;;5050883;28;20468;-57
2023/09/15 08:56:51;;;;;;;46.00;44.37;;;21.90;80.40;;;;;;5051122;28;20464;-58
2023/09/15 08:59:21;;;;;;;45.60;44.10;;;21.90;80.60;;;;;;5051018;28;20436;-59
2023/09/15 09:01:48;;;;;;;43.23;41.63;;;21.90;80.60;;;;;;5051150;28;20894;-59
2023/09/15 09:04:15;;;;;;;44.73;43.10;;;21.90;80.60;;;;;;5050751;28;20468;-57
2023/09/15 09:06:43;;;;;;;43.17;41.60;;;21.90;80.60;;;;;;5051046;28;20468;-57
2023/09/15 09:09:10;;;;;;;42.37;40.87;;;21.90;80.80;;;;;;5050997;28;20504;-58
2023/09/15 09:11:37;;;;;;;46.73;45.03;;;21.90;80.70;;;;;;5042618;28;20472;-56
2023/09/15 09:14:11;;;;;;;42.43;40.90;;;21.90;80.80;;;;;;5050725;28;20475;-58
2023/09/15 09:16:42;;;;;;;45.30;43.70;;;21.90;81.00;;;;;;5051159;28;20460;-58
2023/09/15 09:19:10;;;;;;;43.97;42.27;;;21.90;80.80;;;;;;5051066;28;20506;-58
2023/09/15 09:21:37;;;;;;;45.53;43.83;;;21.90;81.00;;;;;;5050758;28;20445;-58
2023/09/15 09:24:04;;;;;;;42.23;40.43;;;21.90;81.00;;;;;;5050679;28;20468;-53
2023/09/15 09:26:31;;;;;;;42.50;41.00;;;21.90;80.90;;;;;;5050624;28;20507;-59
2023/09/15 09:28:58;;;;;;;45.33;43.63;;;21.90;81.20;;;;;;5050702;28;20503;-57
2023/09/15 09:31:26;;;;;;;45.20;43.50;;;21.90;81.10;;;;;;5050783;28;20505;-57
2023/09/15 09:33:54;;;;;;;45.50;43.70;;;21.90;81.10;;;;;;5050853;28;20468;-57
2023/09/15 09:36:22;;;;;;;45.63;43.83;;;21.90;81.30;;;;;;5050700;28;20487;-59
2023/09/15 09:38:50;;;;;;;46.17;44.57;;;21.90;81.40;;;;;;5050691;28;20471;-57
2023/09/15 09:41:18;;;;;;;45.37;43.60;;;21.90;81.40;;;;;;5050573;28;20475;-56
2023/09/15 09:43:48;;;;;;;45.60;43.90;;;21.90;81.50;;;;;;5050594;28;20446;-58
2023/09/15 09:46:16;;;;;;;44.90;43.40;;;21.90;81.50;;;;;;5050554;28;20471;-58
2023/09/15 09:48:44;;;;;;;44.37;42.63;;;21.90;81.60;;;;;;5050616;28;20559;-59
2023/09/15 09:51:14;;;;;;;43.20;41.40;;;21.90;81.60;;;;;;5050614;28;20451;-58
2023/09/15 09:53:41;;;;;;;44.70;43.10;;;21.90;81.50;;;;;;5042656;28;20439;-58
2023/09/15 09:56:08;;;;;;;44.17;42.67;;;21.90;81.60;;;;;;5050552;28;20902;-55
2023/09/15 09:58:38;;;;;;;44.23;42.57;;;21.90;81.80;;;;;;5054182;28;20460;-59
2023/09/15 10:01:06;;;;;;;46.07;44.37;;;21.90;81.80;;;;;;5054181;28;20442;-58
2023/09/15 10:03:34;;;;;;;44.90;43.20;;;21.90;81.80;;;;;;5053778;28;20451;-58
2023/09/15 10:06:01;;;;;;;47.17;45.33;;;22.00;82.00;;;;;;5054047;28;20491;-57
2023/09/15 10:08:30;;;;;;;47.13;45.53;;;22.00;82.00;;;;;;5053864;28;20468;-57
2023/09/15 10:10:57;;;;;;;46.13;44.33;;;22.00;82.10;;;;;;5054132;28;20464;-57
2023/09/15 10:13:26;;;;;;;48.03;46.33;;;22.00;82.00;;;;;;5053730;28;20479;-57
2023/09/15 10:15:53;;;;;;;48.23;46.43;;;22.00;82.00;;;;;;5053838;28;21044;-55
2023/09/15 10:18:21;;;;;;;43.37;41.70;;;22.00;82.00;;;;;;5053754;28;20441;-58
2023/09/15 10:20:51;;;;;;;43.77;42.20;;;22.00;82.40;;;;;;5053861;28;20722;-58
2023/09/15 10:23:18;;;;;;;41.77;40.37;;;22.00;82.40;;;;;;5053551;28;20468;-59
2023/09/15 10:25:49;;;;;;;43.63;42.03;;;22.00;82.40;;;;;;5053775;28;20495;-57
2023/09/15 10:28:18;;;;;;;46.60;44.83;;;22.00;82.40;;;;;;5053592;28;20464;-57
2023/09/15 10:30:45;;;;;;;45.07;43.40;;;22.00;82.40;;;;;;5053516;28;20479;-57
2023/09/15 10:33:13;;;;;;;46.57;44.87;;;22.00;82.50;;;;;;5053348;28;20472;-56
2023/09/15 10:35:40;;;;;;;46.00;44.10;;;22.00;82.60;;;;;;5053249;28;20884;-58
2023/09/15 10:38:08;;;;;;;46.90;45.20;;;22.00;82.50;;;;;;5053577;28;20502;-58
2023/09/15 10:40:47;;;;;;;41.73;40.30;;;22.00;82.60;;;;;;5053265;28;20476;-57
2023/09/15 10:43:17;;;;;;;44.30;42.60;;;22.00;82.50;;;;;;5053526;28;20472;-54
2023/09/15 10:45:54;;;;;;;42.70;41.20;;;22.00;82.60;;;;;;5045535;28;20468;-53
2023/09/15 10:48:22;;;;;;;46.13;44.47;;;22.00;83.30;;;;;;5053344;28;20440;-58
2023/09/15 10:50:49;;;;;;;45.50;43.80;;;22.00;82.50;;;;;;5053291;28;20893;-56
2023/09/15 10:53:20;;;;;;;43.73;42.03;;;22.00;82.60;;;;;;5052981;28;20475;-56
2023/09/15 10:55:48;;;;;;;43.63;42.10;;;22.00;82.80;;;;;;5053034;28;20831;-57
2023/09/15 10:58:17;;;;;;;47.03;45.27;;;22.00;82.80;;;;;;5053108;28;20879;-57
2023/09/15 11:00:44;;;;;;;45.87;44.00;;;22.10;82.90;;;;;;5045060;28;20826;-56
2023/09/15 11:03:11;;;;;;;43.83;42.03;;;22.10;82.90;;;;;;5052827;28;20505;-57
2023/09/15 11:05:38;;;;;;;44.70;42.67;;;22.10;83.00;;;;;;5052872;28;20456;-58
2023/09/15 11:08:06;;;;;;;46.03;44.43;;;22.10;82.90;;;;;;5051879;28;20469;-56
2023/09/15 11:10:33;;;;;;;43.93;42.33;;;22.10;82.90;;;;;;5052676;28;20508;-57
2023/09/15 11:13:03;;;;;;;42.97;41.37;;;22.10;82.80;;;;;;5052627;28;20467;-55
2023/09/15 11:15:32;;;;;;;41.80;40.30;;;22.10;82.90;;;;;;5052772;28;20468;-57
2023/09/15 11:17:59;;;;;;;44.80;43.10;;;22.10;83.00;;;;;;5052673;28;20447;-58
2023/09/15 11:20:26;;;;;;;43.57;42.00;;;22.10;82.90;;;;;;5052522;28;20876;-56
2023/09/15 11:22:56;;;;;;;41.37;39.87;;;22.10;82.80;;;;;;5052297;28;20472;-58
2023/09/15 11:25:24;;;;;;;41.37;39.87;;;22.20;83.00;;;;;;5052196;28;20521;-58
2023/09/15 11:27:53;;;;;;;42.43;40.87;;;22.20;83.00;;;;;;5052458;28;20448;-56
2023/09/15 11:30:26;;;;;;;42.83;41.23;;;22.20;83.00;;;;;;5052151;28;20566;-57
2023/09/15 11:32:54;;;;;;;41.90;40.30;;;22.20;82.90;;;;;;5052321;28;20443;-58
2023/09/15 11:35:21;;;;;;;43.20;41.70;;;22.20;82.90;;;;;;5052226;28;20495;-56
2023/09/15 11:37:48;;;;;;;43.93;42.33;;;22.20;83.00;;;;;;5052518;28;20479;-56
2023/09/15 11:40:22;;;;;;;44.80;43.20;;;22.20;82.90;;;;;;5052260;28;20472;-58
2023/09/15 11:42:53;;;;;;;44.90;43.30;;;22.20;82.90;;;;;;5044715;28;20954;-54
2023/09/15 11:45:24;;;;;;;47.37;45.77;;;22.30;83.10;;;;;;5052037;28;20460;-57
2023/09/15 11:47:52;;;;;;;47.23;45.53;;;22.30;83.00;;;;;;5052216;28;20471;-58
2023/09/15 11:50:20;;;;;;;43.67;42.07;;;22.30;82.90;;;;;;5052092;28;20901;-57
2023/09/15 11:52:47;;;;;;;44.67;42.97;;;22.30;82.80;;;;;;5051818;28;20472;-57
2023/09/15 11:55:19;;;;;;;47.10;45.20;;;22.30;82.70;;;;;;5052086;28;20484;-54
2023/09/15 11:57:46;;;;;;;44.20;42.60;;;22.30;82.70;;;;;;5044147;28;20523;-58
2023/09/15 12:00:15;;;;;;;44.83;43.23;;;22.30;82.60;;;;;;5052151;28;20443;-56
2023/09/15 12:02:46;;;;;;;45.33;43.63;;;22.30;82.60;;;;;;5051799;28;20464;-59
2023/09/15 12:05:14;;;;;;;46.67;44.90;;;22.40;82.60;;;;;;5051748;28;20456;-58
2023/09/15 12:07:44;;;;;;;48.40;46.70;;;22.40;82.60;;;;;;5051609;28;20463;-58
2023/09/15 12:10:12;;;;;;;43.70;42.20;;;22.40;82.50;;;;;;5051729;28;20923;-58
2023/09/15 12:12:39;;;;;;;44.47;42.87;;;22.40;82.50;;;;;;5051434;28;20870;-58
2023/09/15 12:15:08;;;;;;;43.40;41.80;;;22.50;82.50;;;;;;5051550;28;20484;-56
2023/09/15 12:17:35;;;;;;;44.80;43.20;;;22.40;82.20;;;;;;5051494;28;20439;-58
2023/09/15 12:20:05;;;;;;;48.73;47.03;;;22.50;82.10;;;;;;5051237;28;20440;-56
2023/09/15 12:22:32;;;;;;;43.33;41.73;;;22.50;82.00;;;;;;5051320;28;20487;-57
2023/09/15 12:25:00;;;;;;;46.90;45.20;;;22.50;82.00;;;;;;5051307;28;20832;-58
2023/09/15 12:27:27;;;;;;;44.43;42.90;;;22.50;81.90;;;;;;5051629;28;20494;-56
2023/09/15 12:29:54;;;;;;;43.40;41.90;;;22.60;81.80;;;;;;5051474;28;20511;-58
2023/09/15 12:32:27;;;;;;;44.10;42.37;;;22.60;81.80;;;;;;5051124;28;20444;-58